createdAt,value
2023-01-10T00:01:23.435Z,4.10
2023-01-10T00:04:29.299Z,5.05
2023-01-10T00:07:30.906Z,4.03
2023-01-10T00:10:33.119Z,3.88
2023-01-10T00:13:34.465Z,4.40
2023-01-10T00:16:37.093Z,4.10
2023-01-10T00:19:38.449Z,4.05
2023-01-10T00:22:39.842Z,3.78
2023-01-10T00:25:41.743Z,4.38
2023-01-10T00:28:43.336Z,3.10
2023-01-10T00:31:44.738Z,4.18
2023-01-10T00:34:46.445Z,3.47
2023-01-10T00:37:47.858Z,3.70
2023-01-10T00:40:49.624Z,4.05
2023-01-10T00:43:57.152Z,3.30
2023-01-10T00:46:58.485Z,3.13
2023-01-10T00:49:59.939Z,3.30
2023-01-10T00:53:01.333Z,4.05
2023-01-10T00:56:02.738Z,3.58
2023-01-10T00:59:05.862Z,2.58
2023-01-10T01:02:07.356Z,2.43
2023-01-10T01:05:08.998Z,2.85
2023-01-10T01:08:11.285Z,2.88
2023-01-10T01:11:12.748Z,4.03
2023-01-10T01:14:14.125Z,3.67
2023-01-10T01:17:15.578Z,2.85
2023-01-10T01:20:17.107Z,3.20
2023-01-10T01:23:18.457Z,3.35
2023-01-10T01:26:19.790Z,3.20
2023-01-10T01:29:21.449Z,2.42
2023-01-10T01:32:23.871Z,2.80
2023-01-10T01:35:25.377Z,3.65
2023-01-10T01:38:26.739Z,3.33
2023-01-10T01:41:46.700Z,3.10
2023-01-10T01:45:07.951Z,3.13
2023-01-10T01:48:17.696Z,2.80
2023-01-10T01:51:24.681Z,3.75
2023-01-10T01:54:27.264Z,2.58
2023-01-10T01:57:31.391Z,2.65
2023-01-10T02:00:32.802Z,2.55
2023-01-10T02:03:35.350Z,2.92
2023-01-10T02:06:36.963Z,2.20
2023-01-10T02:09:47.423Z,3.05
2023-01-10T02:12:51.165Z,2.03
2023-01-10T02:15:52.561Z,3.17
2023-01-10T02:18:53.997Z,2.60
2023-01-10T02:22:08.903Z,3.50
2023-01-10T02:25:36.779Z,2.83
2023-01-10T02:29:06.422Z,2.85
2023-01-10T02:32:43.493Z,3.15
2023-01-10T02:36:06.129Z,2.20
2023-01-10T02:39:25.670Z,3.63
2023-01-10T02:42:44.288Z,2.75
2023-01-10T02:46:06.911Z,2.40
2023-01-10T02:49:08.398Z,2.75
2023-01-10T02:52:11.381Z,2.45
2023-01-10T02:55:12.736Z,2.47
2023-01-10T02:58:29.129Z,3.13
2023-01-10T03:01:45.501Z,2.80
2023-01-10T03:05:25.297Z,3.03
2023-01-10T03:08:36.096Z,2.70
2023-01-10T03:11:41.720Z,3.28
2023-01-10T03:14:45.847Z,3.33
2023-01-10T03:17:54.007Z,3.70
2023-01-10T03:20:58.233Z,3.13
2023-01-10T03:24:05.363Z,2.55
2023-01-10T03:27:44.455Z,3.40
2023-01-10T03:30:58.518Z,2.78
2023-01-10T03:37:08.889Z,2.03
2023-01-10T03:40:21.919Z,2.70
2023-01-10T03:44:03.223Z,2.30
2023-01-10T03:47:37.237Z,2.40
2023-01-10T03:50:40.500Z,2.45
2023-01-10T03:53:41.851Z,1.83
2023-01-10T03:56:45.056Z,2.80
2023-01-10T03:59:48.283Z,3.22
2023-01-10T04:02:49.797Z,2.05
2023-01-10T04:05:51.792Z,3.50
2023-01-10T04:08:53.139Z,2.20
2023-01-10T04:11:54.466Z,2.17
2023-01-10T04:14:55.877Z,2.80
2023-01-10T04:17:57.224Z,2.53
2023-01-10T04:20:58.613Z,2.92
2023-01-10T04:23:59.989Z,3.63
2023-01-10T04:27:01.363Z,2.53
2023-01-10T04:30:03.286Z,3.38
2023-01-10T04:33:06.566Z,3.75
2023-01-10T04:36:08.166Z,2.13
2023-01-10T04:39:09.508Z,2.75
2023-01-10T04:42:11.096Z,3.50
2023-01-10T04:45:16.981Z,2.60
2023-01-10T04:48:18.879Z,2.92
2023-01-10T04:51:20.293Z,2.55
2023-01-10T04:54:22.626Z,3.10
2023-01-10T04:57:24.025Z,2.50
2023-01-10T05:00:25.459Z,2.15
2023-01-10T05:03:26.795Z,3.25
2023-01-10T05:06:28.251Z,2.58
2023-01-10T05:09:29.620Z,3.40
2023-01-10T05:12:31.101Z,3.25
2023-01-10T05:15:32.435Z,2.83
2023-01-10T05:18:34.188Z,3.55
2023-01-10T05:21:35.543Z,3.78
2023-01-10T05:24:36.936Z,3.33
2023-01-10T05:27:41.264Z,3.60
2023-01-10T05:30:42.588Z,3.25
2023-01-10T05:33:46.006Z,2.80
2023-01-10T05:36:47.366Z,4.20
2023-01-10T05:39:48.709Z,4.07
2023-01-10T05:42:49.992Z,3.35
2023-01-10T05:45:52.144Z,4.43
2023-01-10T05:48:53.538Z,3.28
2023-01-10T05:51:54.938Z,3.40
2023-01-10T05:54:56.250Z,3.72
2023-01-10T05:57:57.671Z,3.38
2023-01-10T06:00:59.135Z,3.88
2023-01-10T06:04:00.588Z,4.43
2023-01-10T06:07:02.034Z,3.50
2023-01-10T06:10:03.684Z,3.28
2023-01-10T06:13:05.047Z,4.10
2023-01-10T06:16:06.737Z,3.85
2023-01-10T06:19:08.846Z,3.65
2023-01-10T06:22:10.222Z,3.70
2023-01-10T06:25:12.641Z,5.32
2023-01-10T06:28:14.457Z,3.65
2023-01-10T06:31:15.898Z,4.03
2023-01-10T06:34:17.253Z,5.38
2023-01-10T06:37:20.214Z,4.47
2023-01-10T06:40:21.802Z,3.73
2023-01-10T06:43:25.165Z,4.47
2023-01-10T06:46:27.240Z,3.92
2023-01-10T06:49:29.331Z,4.25
2023-01-10T06:52:31.009Z,4.82
2023-01-10T06:55:32.471Z,4.38
2023-01-10T06:58:34.283Z,5.22
2023-01-10T07:01:35.698Z,4.88
2023-01-10T07:04:37.149Z,5.57
2023-01-10T07:07:38.509Z,6.55
2023-01-10T07:10:41.383Z,4.10
2023-01-10T07:13:42.840Z,5.65
2023-01-10T07:16:44.186Z,5.57
2023-01-10T07:19:45.529Z,4.65
2023-01-10T07:22:57.920Z,5.43
2023-01-10T07:26:07.453Z,5.30
2023-01-10T07:29:08.952Z,5.63
2023-01-10T07:32:10.279Z,4.97
2023-01-10T07:35:11.588Z,5.03
2023-01-10T07:38:12.985Z,5.00
2023-01-10T07:41:14.333Z,4.80
2023-01-10T07:44:15.927Z,5.20
2023-01-10T07:47:17.254Z,4.63
2023-01-10T07:50:18.677Z,4.53
2023-01-10T07:53:20.018Z,5.78
2023-01-10T07:56:21.335Z,4.68
2023-01-10T07:59:22.668Z,4.38
2023-01-10T08:02:24.105Z,4.28
2023-01-10T08:05:25.786Z,5.30
2023-01-10T08:08:27.780Z,4.43
2023-01-10T08:11:29.184Z,5.43
2023-01-10T08:14:30.570Z,5.40
2023-01-10T08:17:35.900Z,5.05
2023-01-10T08:20:37.904Z,5.10
2023-01-10T08:23:39.387Z,4.15
2023-01-10T08:26:40.726Z,5.22
2023-01-10T08:29:42.044Z,5.32
2023-01-10T08:32:43.740Z,5.45
2023-01-10T08:35:45.143Z,5.35
2023-01-10T08:38:47.299Z,5.93
2023-01-10T08:41:49.207Z,4.93
2023-01-10T08:44:50.582Z,5.03
2023-01-10T08:47:52.955Z,6.72
2023-01-10T08:50:54.377Z,5.90
2023-01-10T08:53:55.795Z,4.63
2023-01-10T08:56:57.196Z,5.85
2023-01-10T08:59:58.568Z,5.25
2023-01-10T09:02:59.959Z,6.07
2023-01-10T09:06:01.757Z,5.57
2023-01-10T09:09:03.789Z,5.50
2023-01-10T09:12:25.223Z,5.30
2023-01-10T09:15:29.687Z,5.53
2023-01-10T09:18:31.200Z,4.97
2023-01-10T09:21:32.587Z,4.05
2023-01-10T09:24:36.826Z,5.55
2023-01-10T09:27:38.227Z,6.18
2023-01-10T09:30:39.584Z,4.45
2023-01-10T09:33:47.174Z,6.03
2023-01-10T09:36:48.797Z,5.22
2023-01-10T09:39:52.130Z,4.45
2023-01-10T09:43:19.697Z,4.03
2023-01-10T09:46:46.777Z,4.70
2023-01-10T09:49:57.985Z,5.10
2023-01-10T09:53:15.823Z,3.78
2023-01-10T09:56:17.781Z,6.15
2023-01-10T09:59:37.948Z,4.28
2023-01-10T10:02:44.141Z,4.22
2023-01-10T10:05:45.559Z,4.45
2023-01-10T10:08:47.349Z,4.18
2023-01-10T10:12:41.048Z,4.50
2023-01-10T10:16:06.192Z,4.05
2023-01-10T10:19:13.226Z,4.85
2023-01-10T10:22:32.776Z,5.65
2023-01-10T10:25:55.179Z,3.92
2023-01-10T10:29:23.515Z,5.53
2023-01-10T10:32:43.118Z,4.47
2023-01-10T10:35:56.436Z,4.93
2023-01-10T10:39:00.603Z,4.07
2023-01-10T10:42:03.424Z,3.72
2023-01-10T10:45:14.882Z,3.88
2023-01-10T10:48:27.115Z,3.90
2023-01-10T10:51:41.785Z,3.83
2023-01-10T10:54:43.199Z,3.92
2023-01-10T10:57:59.297Z,4.43
2023-01-10T11:01:01.504Z,4.40
2023-01-10T11:04:13.412Z,3.50
2023-01-10T11:07:17.670Z,4.95
2023-01-10T11:10:36.427Z,4.35
2023-01-10T11:13:48.519Z,4.28
2023-01-10T11:16:49.893Z,3.58
2023-01-10T11:20:05.992Z,3.78
2023-01-10T11:23:07.443Z,4.20
2023-01-10T11:26:33.994Z,6.35
2023-01-10T11:29:39.744Z,4.70
2023-01-10T11:32:56.424Z,4.50
2023-01-10T11:35:59.915Z,6.93
2023-01-10T11:39:03.743Z,5.07
2023-01-10T11:42:29.721Z,5.13
2023-01-10T11:45:33.127Z,3.90
2023-01-10T11:49:07.126Z,4.45
2023-01-10T11:52:27.564Z,4.95
2023-01-10T11:55:32.466Z,5.38
2023-01-10T11:58:35.696Z,4.53
2023-01-10T12:01:43.871Z,5.25
2023-01-10T12:04:48.017Z,6.50
2023-01-10T12:08:06.041Z,4.25
2023-01-10T12:11:28.686Z,4.35
2023-01-10T12:14:30.360Z,3.95
2023-01-10T12:17:34.915Z,5.22
2023-01-10T12:20:47.755Z,4.35
2023-01-10T12:23:50.927Z,3.33
2023-01-10T12:26:53.659Z,5.03
2023-01-10T12:30:12.116Z,4.40
2023-01-10T12:33:17.480Z,4.22
2023-01-10T12:36:40.970Z,4.45
2023-01-10T12:39:50.608Z,2.67
2023-01-10T12:43:15.867Z,3.97
2023-01-10T12:46:43.624Z,4.15
2023-01-10T12:49:54.828Z,3.65
2023-01-10T12:53:18.104Z,4.40
2023-01-10T12:56:20.074Z,4.95
2023-01-10T12:59:41.080Z,4.38
2023-01-10T13:02:46.774Z,4.43
2023-01-10T13:05:50.171Z,3.95
2023-01-10T13:08:52.449Z,5.50
2023-01-10T13:12:10.270Z,4.03
2023-01-10T13:15:34.250Z,4.05
2023-01-10T13:18:35.628Z,3.97
2023-01-10T13:21:41.662Z,4.75
2023-01-10T13:24:55.734Z,4.10
2023-01-10T13:28:06.737Z,4.40
2023-01-10T13:31:28.185Z,4.22
2023-01-10T13:34:35.782Z,4.67
2023-01-10T13:37:39.522Z,4.88
2023-01-10T13:40:41.029Z,3.75
2023-01-10T13:44:02.802Z,4.03
2023-01-10T13:47:04.156Z,3.22
2023-01-10T13:50:23.777Z,3.70
2023-01-10T13:53:28.245Z,5.38
2023-01-10T13:56:41.006Z,8.10
2023-01-10T14:00:23.234Z,4.38
2023-01-10T14:03:57.519Z,10.02
2023-01-10T14:07:02.343Z,4.32
2023-01-10T14:10:24.996Z,3.35
2023-01-10T14:13:26.395Z,4.97
2023-01-10T14:16:30.724Z,3.42
2023-01-10T14:19:34.083Z,3.65
2023-01-10T14:22:38.910Z,4.07
2023-01-10T14:25:40.686Z,3.33
2023-01-10T14:28:42.288Z,3.42
2023-01-10T14:31:46.830Z,3.72
2023-01-10T14:34:49.212Z,3.67
2023-01-10T14:37:54.937Z,3.20
2023-01-10T14:41:27.301Z,3.05
2023-01-10T14:44:45.574Z,3.55
2023-01-10T14:47:48.972Z,3.55
2023-01-10T14:50:50.356Z,9.15
2023-01-10T14:53:56.926Z,4.90
2023-01-10T14:56:58.292Z,3.80
2023-01-10T15:00:08.860Z,4.03
2023-01-10T15:03:22.302Z,2.80
2023-01-10T15:06:25.889Z,4.22
2023-01-10T15:09:29.335Z,3.65
2023-01-10T15:12:34.510Z,3.80
2023-01-10T15:15:37.775Z,3.00
2023-01-10T15:18:43.610Z,3.45
2023-01-10T15:21:45.857Z,2.72
2023-01-10T15:25:24.955Z,3.63
2023-01-10T15:28:28.990Z,3.72
2023-01-10T15:31:30.502Z,2.85
2023-01-10T15:34:32.037Z,3.50
2023-01-10T15:37:37.627Z,3.22
2023-01-10T15:40:40.360Z,3.22
2023-01-10T15:43:41.761Z,3.80
2023-01-10T15:46:56.848Z,2.60
2023-01-10T15:49:58.330Z,3.72
2023-01-10T15:53:03.060Z,3.38
2023-01-10T15:56:14.482Z,3.22
2023-01-10T15:59:24.687Z,4.25
2023-01-10T16:02:32.095Z,3.88
2023-01-10T16:05:33.687Z,3.10
2023-01-10T16:08:37.231Z,3.55
2023-01-10T16:11:59.300Z,5.10
2023-01-10T16:15:00.680Z,5.45
2023-01-10T16:18:02.333Z,3.75
2023-01-10T16:21:05.551Z,3.00
2023-01-10T16:24:12.066Z,3.08
2023-01-10T16:27:13.492Z,2.97
2023-01-10T16:30:23.675Z,2.55
2023-01-10T16:33:27.149Z,2.92
2023-01-10T16:36:28.531Z,3.25
2023-01-10T16:39:29.926Z,3.75
2023-01-10T16:42:50.019Z,2.20
2023-01-10T16:46:00.157Z,3.97
2023-01-10T16:49:04.978Z,2.95
2023-01-10T16:52:06.339Z,6.07
2023-01-10T16:55:19.641Z,3.17
2023-01-10T16:58:21.095Z,3.17
2023-01-10T17:01:28.136Z,2.72
2023-01-10T17:04:32.064Z,3.30
2023-01-10T17:10:35.821Z,3.33
2023-01-10T17:13:42.229Z,2.85
2023-01-10T17:16:43.577Z,2.65
2023-01-10T17:19:46.605Z,2.13
2023-01-10T17:22:47.987Z,2.37
2023-01-10T17:25:50.129Z,3.10
2023-01-10T17:28:51.467Z,2.45
2023-01-10T17:31:52.849Z,2.45
2023-01-10T17:34:54.184Z,2.25
2023-01-10T17:37:56.171Z,3.05
2023-01-10T17:41:02.238Z,2.25
2023-01-10T17:44:03.628Z,2.40
2023-01-10T17:47:05.048Z,3.80
2023-01-10T17:50:06.560Z,2.95
2023-01-10T17:53:08.484Z,3.40
2023-01-10T17:56:10.051Z,3.08
2023-01-10T17:59:11.402Z,5.65
2023-01-10T18:02:18.362Z,8.25
2023-01-10T18:05:19.910Z,3.20
2023-01-10T18:08:22.004Z,3.55
2023-01-10T18:11:24.488Z,3.10
2023-01-10T18:14:38.089Z,3.35
2023-01-10T18:17:39.547Z,3.53
2023-01-10T18:20:42.752Z,2.40
2023-01-10T18:23:46.196Z,2.53
2023-01-10T18:26:47.749Z,3.05
2023-01-10T18:29:50.227Z,2.97
2023-01-10T18:32:52.966Z,2.78
2023-01-10T18:35:55.392Z,2.65
2023-01-10T18:38:57.177Z,2.38
2023-01-10T18:41:58.572Z,3.00
2023-01-10T18:45:00.005Z,2.63
2023-01-10T18:48:01.770Z,2.88
2023-01-10T18:51:03.843Z,3.40
2023-01-10T18:54:06.151Z,2.78
2023-01-10T18:57:07.639Z,2.75
2023-01-10T19:00:09.727Z,2.28
2023-01-10T19:03:11.147Z,2.13
2023-01-10T19:06:15.916Z,2.83
2023-01-10T19:09:18.750Z,2.83
2023-01-10T19:12:20.101Z,2.78
2023-01-10T19:15:21.525Z,2.65
2023-01-10T19:18:22.906Z,2.70
2023-01-10T19:21:25.827Z,2.50
2023-01-10T19:24:29.051Z,2.90
2023-01-10T19:27:33.409Z,3.15
2023-01-10T19:30:37.633Z,2.70
2023-01-10T19:33:41.002Z,2.35
2023-01-10T19:36:44.213Z,3.15
2023-01-10T19:39:45.691Z,2.80
2023-01-10T19:42:47.130Z,3.22
2023-01-10T19:45:48.582Z,3.67
2023-01-10T19:48:50.036Z,3.03
2023-01-10T19:51:53.015Z,3.30
2023-01-10T19:54:54.390Z,3.55
2023-01-10T19:57:55.799Z,3.53
2023-01-10T20:00:57.213Z,4.03
2023-01-10T20:04:02.304Z,5.50
2023-01-10T20:07:03.744Z,4.07
2023-01-10T20:10:05.499Z,3.55
2023-01-10T20:13:08.436Z,3.30
2023-01-10T20:16:13.166Z,3.13
2023-01-10T20:19:15.323Z,3.27
2023-01-10T20:22:17.053Z,3.50
2023-01-10T20:25:18.402Z,3.50
2023-01-10T20:28:19.822Z,3.40
2023-01-10T20:31:23.339Z,3.65
2023-01-10T20:34:24.755Z,3.17
2023-01-10T20:37:26.077Z,3.35
2023-01-10T20:40:28.741Z,4.22
2023-01-10T20:43:30.140Z,3.47
2023-01-10T20:46:33.218Z,3.08
2023-01-10T20:49:34.588Z,3.10
2023-01-10T20:52:35.991Z,3.55
2023-01-10T20:55:37.725Z,3.65
2023-01-10T20:58:39.269Z,4.10
2023-01-10T21:01:40.818Z,3.88
2023-01-10T21:04:42.193Z,3.80
2023-01-10T21:07:43.580Z,3.20
2023-01-10T21:10:46.413Z,3.33
2023-01-10T21:13:47.913Z,4.05
2023-01-10T21:16:49.841Z,3.35
2023-01-10T21:19:51.223Z,3.38
2023-01-10T21:22:54.205Z,3.38
2023-01-10T21:26:12.150Z,3.30
2023-01-10T21:29:13.569Z,3.28
2023-01-10T21:32:14.917Z,2.80
2023-01-10T21:35:16.481Z,2.60
2023-01-10T21:38:17.868Z,3.75
2023-01-10T21:41:38.523Z,3.20
2023-01-10T21:44:39.903Z,3.10
2023-01-10T21:47:41.300Z,3.00
2023-01-10T21:50:44.109Z,2.60
2023-01-10T21:53:45.491Z,3.05
2023-01-10T21:56:46.836Z,3.65
2023-01-10T21:59:49.213Z,2.97
2023-01-10T22:02:50.537Z,3.15
2023-01-10T22:05:52.405Z,2.58
2023-01-10T22:08:54.069Z,2.40
2023-01-10T22:11:55.562Z,2.53
2023-01-10T22:14:57.330Z,2.85
2023-01-10T22:18:00.613Z,3.15
2023-01-10T22:21:02.320Z,3.15
2023-01-10T22:24:04.518Z,3.00
2023-01-10T22:27:06.121Z,2.67
2023-01-10T22:30:08.306Z,2.80
2023-01-10T22:33:09.637Z,2.65
2023-01-10T22:36:17.114Z,2.72
2023-01-10T22:39:18.735Z,2.13
2023-01-10T22:42:20.116Z,2.30
2023-01-10T22:45:21.480Z,2.40
2023-01-10T22:48:25.070Z,2.30
2023-01-10T22:51:27.888Z,2.33
2023-01-10T22:54:29.329Z,2.20
2023-01-10T22:57:32.969Z,2.20
2023-01-10T23:03:36.013Z,2.20
2023-01-10T23:06:37.542Z,2.03
2023-01-10T23:09:38.872Z,2.88
2023-01-10T23:12:40.201Z,2.20
2023-01-10T23:15:41.650Z,1.95
2023-01-10T23:18:43.300Z,1.60
2023-01-10T23:21:44.583Z,2.00
2023-01-10T23:24:45.951Z,1.85
2023-01-10T23:27:47.263Z,1.67
2023-01-10T23:30:48.599Z,2.10
2023-01-10T23:33:50.600Z,2.00
2023-01-10T23:36:51.890Z,2.47
2023-01-10T23:39:53.304Z,1.85
2023-01-10T23:42:54.618Z,2.00
2023-01-10T23:45:56.107Z,2.38
2023-01-10T23:48:57.424Z,2.05
2023-01-10T23:51:58.950Z,2.10
2023-01-10T23:55:00.325Z,1.75
2023-01-10T23:58:01.639Z,1.70
